This is the latest recevied weather packets stored in our database for station/object DH7LK-5. If no packets are shown the sender has not sent any weather packets the latest 10 day(s).
| Time | Temp. | Humidity | Pressure | Rain* | Wind** | Luminosity | Snow |
|---|---|---|---|---|---|---|---|
| 1777765359 | 13.89° C | 71% | 1014.4 hPa | 0 mm | - | - | - |
| 1777763559 | 13.89° C | 69% | 1014.6 hPa | 0 mm | - | - | - |
| 1777761758 | 14.44° C | 68% | 1014.8 hPa | 0 mm | - | - | - |
| 1777759957 | 15° C | 66% | 1015 hPa | 0 mm | - | - | - |
| 1777758155 | 15.56° C | 63% | 1015.1 hPa | 0 mm | - | - | - |
| 1777756357 | 16.11° C | 61% | 1015.4 hPa | 0 mm | - | - | - |
| 1777754552 | 16.11° C | 60% | 1015.6 hPa | 0 mm | - | - | - |
| 1777752742 | 17.22° C | 58% | 1015.8 hPa | 0 mm | - | - | - |
| 1777750941 | 18.33° C | 54% | - | 0.25 mm | - | - | - |
| 1777749110 | 19.44° C | 48% | - | 0.25 mm | - | - | - |
| 1777745336 | 23.89° C | 35% | - | 0.25 mm | - | - | - |
| 1777745150 | 26.11° C | 28% | - | 0.25 mm | - | - | - |
| 1777740464 | 25.56° C | 33% | - | 0.25 mm | - | - | - |
| 1777718892 | 25° C | 34% | - | 0.25 mm | - | - | - |
| 1777700184 | 11.67° C | 79% | - | 0.25 mm | - | - | - |
| 1777685466 | 9.44° C | 90% | - | 0 mm | - | - | - |
| 1777645698 | 23.33° C | 35% | - | 0 mm | - | - | - |
| 1777616600 | 15° C | 74% | - | 0 mm | - | - | - |
| 1777614779 | 12.78° C | 80% | - | 0 mm | - | - | - |
| 1777596154 | 8.89° C | 87% | - | 0 mm | - | - | - |
| 1777586793 | 13.33° C | 64% | - | 0.25 mm | - | - | - |
| 1777579815 | 13.89° C | 62% | - | 0.25 mm | - | - | - |
| 1777571612 | 18.33° C | 45% | - | 0.25 mm | - | - | - |
| 1777569782 | 18.89° C | 43% | - | 0.25 mm | - | - | - |
| 1777561301 | 19.44° C | 41% | - | 0.25 mm | - | - | - |
* Rain since midnight (hover to see other rain measurements)
** Current wind speed in m/s (hover to see current wind gust speed)